createdAt,value
2019-03-13T00:02:30.261Z,99426.33
2019-03-13T00:05:01.027Z,99425.86
2019-03-13T00:07:35.282Z,99424.22
2019-03-13T00:10:04.655Z,99419.77
2019-03-13T00:12:33.622Z,99425.50
2019-03-13T00:15:05.557Z,99441.85
2019-03-13T00:17:35.960Z,99461.16
2019-03-13T00:20:06.791Z,99491.11
2019-03-13T00:22:35.625Z,99544.89
2019-03-13T00:25:06.808Z,99544.98
2019-03-13T00:27:37.608Z,99553.45
2019-03-13T00:30:08.816Z,99563.38
2019-03-13T00:32:40.215Z,99566.11
2019-03-13T00:35:12.632Z,99586.48
2019-03-13T00:37:42.853Z,99599.80
2019-03-13T00:40:15.707Z,99613.00
2019-03-13T00:42:44.797Z,99624.41
2019-03-13T00:45:16.863Z,99619.11
2019-03-13T00:47:49.245Z,99621.70
2019-03-13T00:50:24.206Z,99626.00
2019-03-13T00:52:54.838Z,99630.23
2019-03-13T00:55:28.252Z,99630.22
2019-03-13T00:58:01.904Z,99645.84
2019-03-13T01:00:56.774Z,99648.28
2019-03-13T01:03:48.187Z,99636.58
2019-03-13T01:19:33.785Z,99674.48
2019-03-13T01:22:02.895Z,99679.40
2019-03-13T01:24:34.375Z,99670.07
2019-03-13T01:27:05.171Z,99683.81
2019-03-13T01:29:34.105Z,99683.27
2019-03-13T01:32:28.031Z,99690.94
2019-03-13T01:35:22.132Z,99684.19
2019-03-13T01:37:51.301Z,99699.73
2019-03-13T01:40:20.416Z,99707.09
2019-03-13T01:43:00.559Z,99711.60
2019-03-13T01:45:30.258Z,99715.59
2019-03-13T01:48:02.213Z,99714.28
2019-03-13T01:50:34.953Z,99726.48
2019-03-13T01:53:04.008Z,99730.23
2019-03-13T01:55:38.694Z,99739.57
2019-03-13T01:58:07.831Z,99737.86
2019-03-13T02:00:42.005Z,99731.88
2019-03-13T02:03:11.409Z,99745.55
2019-03-13T02:05:41.244Z,99746.20
2019-03-13T02:08:11.396Z,99761.94
2019-03-13T02:10:41.852Z,99758.63
2019-03-13T02:13:11.117Z,99755.25
2019-03-13T02:15:40.109Z,99758.06
2019-03-13T02:18:09.330Z,99759.47
2019-03-13T02:20:48.233Z,99756.97
2019-03-13T02:23:33.407Z,99759.98
2019-03-13T02:26:10.000Z,99752.72
2019-03-13T02:28:39.742Z,99752.66
2019-03-13T02:31:11.719Z,99757.66
2019-03-13T02:33:52.617Z,99753.22
2019-03-13T02:36:22.072Z,99755.53
2019-03-13T02:38:52.126Z,99766.66
2019-03-13T02:41:21.156Z,99758.67
2019-03-13T02:43:56.195Z,99748.73
2019-03-13T02:46:25.221Z,99753.22
2019-03-13T02:48:54.135Z,99752.13
2019-03-13T02:51:22.957Z,99752.48
2019-03-13T02:53:52.134Z,99750.34
2019-03-13T02:56:21.437Z,99741.92
2019-03-13T02:58:51.836Z,99738.06
2019-03-13T03:01:32.138Z,99734.88
2019-03-13T03:04:02.982Z,99737.50
2019-03-13T03:06:31.824Z,99744.24
2019-03-13T03:09:00.995Z,99743.97
2019-03-13T03:11:29.796Z,99743.97
2019-03-13T03:13:58.833Z,99746.86
2019-03-13T03:16:28.026Z,99740.13
2019-03-13T03:18:57.058Z,99735.65
2019-03-13T03:21:26.088Z,99741.55
2019-03-13T03:23:55.109Z,99726.67
2019-03-13T03:26:24.184Z,99718.81
2019-03-13T03:28:53.068Z,99731.54
2019-03-13T03:31:21.976Z,99714.98
2019-03-13T03:34:05.244Z,99724.80
2019-03-13T03:36:34.384Z,99730.25
2019-03-13T03:39:05.018Z,99738.84
2019-03-13T03:41:34.056Z,99722.94
2019-03-13T03:44:03.384Z,99728.37
2019-03-13T03:46:36.749Z,99722.40
2019-03-13T03:49:08.389Z,99729.33
2019-03-13T03:51:37.257Z,99735.67
2019-03-13T03:54:06.288Z,99731.95
2019-03-13T03:56:35.110Z,99731.95
2019-03-13T03:59:03.935Z,99735.42
2019-03-13T04:01:32.786Z,99726.52
2019-03-13T04:04:01.864Z,99717.08
2019-03-13T04:06:30.970Z,99732.87
2019-03-13T04:08:59.917Z,99728.56
2019-03-13T04:11:28.744Z,99723.33
2019-03-13T04:13:57.576Z,99744.29
2019-03-13T04:16:26.384Z,99729.31
2019-03-13T04:18:55.594Z,99722.59
2019-03-13T04:21:24.489Z,99724.06
2019-03-13T04:23:53.476Z,99727.73
2019-03-13T04:26:23.971Z,99726.31
2019-03-13T04:28:52.913Z,99723.06
2019-03-13T04:31:21.765Z,99721.17
2019-03-13T04:33:50.689Z,99725.95
2019-03-13T04:36:20.874Z,99721.45
2019-03-13T04:38:49.786Z,99729.51
2019-03-13T04:41:19.431Z,99725.84
2019-03-13T04:43:50.489Z,99718.19
2019-03-13T04:46:19.611Z,99719.97
2019-03-13T04:48:48.495Z,99715.30
2019-03-13T04:51:17.413Z,99713.05
2019-03-13T04:53:46.329Z,99717.34
2019-03-13T04:56:15.146Z,99713.05
2019-03-13T04:58:44.068Z,99705.18
2019-03-13T05:01:12.979Z,99702.56
2019-03-13T05:03:42.396Z,99698.16
2019-03-13T05:09:12.137Z,99699.94
2019-03-13T05:11:41.441Z,99696.75
2019-03-13T05:14:10.568Z,99695.17
2019-03-13T05:16:40.253Z,99696.95
2019-03-13T05:19:09.342Z,99687.21
2019-03-13T05:21:38.243Z,99688.89
2019-03-13T05:24:07.130Z,99695.62
2019-03-13T05:26:39.677Z,99691.15
2019-03-13T05:29:09.207Z,99680.83
2019-03-13T05:31:38.645Z,99679.05
2019-03-13T05:34:07.469Z,99686.07
2019-03-13T05:36:36.678Z,99687.22
2019-03-13T05:39:07.267Z,99676.44
2019-03-13T05:41:37.114Z,99677.10
2019-03-13T05:44:08.180Z,99680.66
2019-03-13T05:46:37.733Z,99677.67
2019-03-13T05:49:07.806Z,99675.59
2019-03-13T05:51:36.822Z,99674.85
2019-03-13T05:54:07.302Z,99685.44
2019-03-13T05:56:37.166Z,99660.23
2019-03-13T05:59:06.195Z,99659.13
2019-03-13T06:01:37.773Z,99663.42
2019-03-13T06:04:08.140Z,99666.78
2019-03-13T06:06:36.987Z,99678.77
2019-03-13T06:09:10.226Z,99669.03
2019-03-13T06:11:40.167Z,99670.55
2019-03-13T06:14:12.707Z,99660.70
2019-03-13T06:16:47.548Z,99657.50
2019-03-13T06:19:16.377Z,99659.11
2019-03-13T06:21:45.211Z,99658.53
2019-03-13T06:24:14.062Z,99657.39
2019-03-13T06:26:53.439Z,99661.06
2019-03-13T06:29:23.323Z,99650.09
2019-03-13T06:31:52.147Z,99663.10
2019-03-13T06:34:23.037Z,99648.20
2019-03-13T06:36:52.812Z,99649.89
2019-03-13T06:39:21.612Z,99637.91
2019-03-13T06:41:50.476Z,99645.00
2019-03-13T06:44:21.891Z,99641.94
2019-03-13T06:46:50.892Z,99646.70
2019-03-13T06:49:19.873Z,99640.52
2019-03-13T06:54:42.964Z,99638.63
2019-03-13T06:57:13.341Z,99644.03
2019-03-13T07:00:00.455Z,99640.11
2019-03-13T07:02:49.235Z,99644.44
2019-03-13T07:05:41.286Z,99631.50
2019-03-13T07:08:18.564Z,99660.35
2019-03-13T07:11:11.662Z,99656.23
2019-03-13T07:13:56.892Z,99659.23
2019-03-13T07:16:44.483Z,99648.84
2019-03-13T07:19:38.356Z,99649.69
2019-03-13T07:22:20.588Z,99659.02
2019-03-13T07:25:13.836Z,99655.45
2019-03-13T07:28:05.340Z,99648.32
2019-03-13T07:30:48.904Z,99655.17
2019-03-13T07:33:37.343Z,99646.64
2019-03-13T07:36:18.419Z,99661.42
2019-03-13T07:39:11.346Z,99642.42
2019-03-13T07:41:57.859Z,99648.30
2019-03-13T07:44:55.232Z,99646.91
2019-03-13T07:47:42.492Z,99638.28
2019-03-13T07:50:43.302Z,99626.55
2019-03-13T07:53:28.834Z,99645.08
2019-03-13T07:56:17.279Z,99637.86
2019-03-13T07:59:01.958Z,99635.72
2019-03-13T08:01:50.822Z,99640.86
2019-03-13T08:04:45.465Z,99643.48
2019-03-13T08:07:33.945Z,99645.63
2019-03-13T08:10:14.302Z,99657.07
2019-03-13T08:13:21.154Z,99633.82
2019-03-13T08:16:18.673Z,99632.41
2019-03-13T08:19:12.935Z,99643.09
2019-03-13T08:21:56.083Z,99615.64
2019-03-13T08:25:03.845Z,99619.83
2019-03-13T08:27:52.195Z,99636.42
2019-03-13T08:30:44.644Z,99635.50
2019-03-13T08:33:33.083Z,99625.38
2019-03-13T08:36:40.419Z,99611.88
2019-03-13T08:39:36.884Z,99617.69
2019-03-13T08:42:23.687Z,99604.70
2019-03-13T08:45:01.055Z,99603.00
2019-03-13T08:47:47.164Z,99605.98
2019-03-13T08:50:29.812Z,99599.31
2019-03-13T08:53:23.628Z,99595.66
2019-03-13T08:56:18.413Z,99604.09
2019-03-13T08:59:16.505Z,99588.98
2019-03-13T09:02:04.482Z,99588.19
2019-03-13T09:04:54.717Z,99597.59
2019-03-13T09:07:50.166Z,99605.17
2019-03-13T09:10:37.617Z,99595.04
2019-03-13T09:13:27.918Z,99595.41
2019-03-13T09:16:31.564Z,99602.48
2019-03-13T09:19:06.643Z,99587.84
2019-03-13T09:21:45.623Z,99586.31
2019-03-13T09:24:30.010Z,99592.41
2019-03-13T09:27:17.058Z,99584.81
2019-03-13T09:30:23.645Z,99574.45
2019-03-13T09:33:09.690Z,99573.86
2019-03-13T09:35:56.411Z,99580.59
2019-03-13T09:38:34.557Z,99566.16
2019-03-13T09:41:26.185Z,99559.36
2019-03-13T09:44:12.583Z,99572.38
2019-03-13T09:47:09.837Z,99555.89
2019-03-13T09:49:57.150Z,99563.52
2019-03-13T09:52:44.054Z,99552.18
2019-03-13T09:59:19.644Z,99556.54
2019-03-13T10:01:55.908Z,99529.80
2019-03-13T10:04:32.323Z,99544.02
2019-03-13T10:07:20.468Z,99539.97
2019-03-13T10:10:08.364Z,99542.40
2019-03-13T10:12:46.980Z,99529.63
2019-03-13T10:15:42.501Z,99542.17
2019-03-13T10:18:36.724Z,99549.69
2019-03-13T10:21:21.338Z,99541.45
2019-03-13T10:23:59.224Z,99541.09
2019-03-13T10:26:54.103Z,99544.63
2019-03-13T10:29:40.106Z,99538.23
2019-03-13T10:32:14.618Z,99543.13
2019-03-13T10:35:02.545Z,99550.19
2019-03-13T10:37:49.665Z,99549.83
2019-03-13T10:40:32.629Z,99542.78
2019-03-13T10:43:22.274Z,99535.06
2019-03-13T10:46:01.475Z,99538.66
2019-03-13T10:48:40.526Z,99534.65
2019-03-13T10:51:31.887Z,99535.83
2019-03-13T10:54:15.945Z,99536.25
2019-03-13T10:57:18.826Z,99535.89
2019-03-13T10:59:53.810Z,99552.43
2019-03-13T11:02:41.445Z,99540.02
2019-03-13T11:05:35.711Z,99548.96
2019-03-13T11:08:19.051Z,99540.36
2019-03-13T11:11:17.895Z,99531.70
2019-03-13T11:14:18.721Z,99526.81
2019-03-13T11:17:04.319Z,99536.48
2019-03-13T11:19:39.500Z,99536.23
2019-03-13T11:22:18.997Z,99534.16
2019-03-13T11:25:04.833Z,99532.05
2019-03-13T11:27:49.490Z,99541.22
2019-03-13T11:30:52.140Z,99548.45
2019-03-13T11:33:38.671Z,99547.59
2019-03-13T11:36:29.832Z,99510.02
2019-03-13T11:39:11.053Z,99521.72
2019-03-13T11:42:02.131Z,99528.31
2019-03-13T11:44:47.125Z,99535.60
2019-03-13T11:47:53.992Z,99520.33
2019-03-13T11:50:40.566Z,99513.06
2019-03-13T11:53:22.778Z,99513.47
2019-03-13T11:56:20.759Z,99504.46
2019-03-13T11:59:27.752Z,99495.31
2019-03-13T12:02:21.975Z,99504.46
2019-03-13T12:05:15.963Z,99508.23
2019-03-13T12:07:51.521Z,99496.23
2019-03-13T12:10:53.063Z,99494.53
2019-03-13T12:13:50.152Z,99468.64
2019-03-13T12:16:36.862Z,99478.11
2019-03-13T12:19:16.474Z,99480.00
2019-03-13T12:22:06.115Z,99472.52
2019-03-13T12:25:00.997Z,99473.36
2019-03-13T12:27:48.421Z,99462.34
2019-03-13T12:30:26.003Z,99454.83
2019-03-13T12:33:08.088Z,99461.55
2019-03-13T12:35:48.172Z,99444.19
2019-03-13T12:38:35.015Z,99455.83
2019-03-13T12:41:24.128Z,99446.55
2019-03-13T12:44:09.758Z,99448.16
2019-03-13T12:47:02.702Z,99452.25
2019-03-13T12:49:55.039Z,99439.05
2019-03-13T12:52:42.006Z,99439.66
2019-03-13T12:55:20.052Z,99445.95
2019-03-13T12:58:15.358Z,99444.66
2019-03-13T13:01:02.885Z,99437.84
2019-03-13T13:04:02.907Z,99430.56
2019-03-13T13:07:04.490Z,99439.91
2019-03-13T13:09:58.073Z,99436.34
2019-03-13T13:12:45.575Z,99435.86
2019-03-13T13:15:25.038Z,99436.34
2019-03-13T13:18:06.574Z,99436.72
2019-03-13T13:20:35.660Z,99428.01
2019-03-13T13:23:05.667Z,99429.44
2019-03-13T13:25:35.518Z,99428.01
2019-03-13T13:28:04.422Z,99417.89
2019-03-13T13:30:33.477Z,99419.69
2019-03-13T13:33:03.628Z,99416.47
2019-03-13T13:35:33.737Z,99406.11
2019-03-13T13:38:03.626Z,99405.91
2019-03-13T13:40:32.960Z,99407.62
2019-03-13T13:43:02.055Z,99401.32
2019-03-13T13:46:11.813Z,99410.16
2019-03-13T13:48:41.926Z,99383.03
2019-03-13T13:51:11.071Z,99390.84
2019-03-13T13:53:40.714Z,99391.91
2019-03-13T13:56:09.698Z,99406.48
2019-03-13T13:58:38.627Z,99384.34
2019-03-13T14:01:09.199Z,99381.72
2019-03-13T14:03:39.203Z,99382.20
2019-03-13T14:06:09.786Z,99384.59
2019-03-13T14:08:40.519Z,99372.28
2019-03-13T14:11:10.250Z,99387.45
2019-03-13T14:13:39.664Z,99383.03
2019-03-13T14:16:08.582Z,99396.66
2019-03-13T14:18:37.485Z,99382.20
2019-03-13T14:21:06.909Z,99395.82
2019-03-13T14:23:36.031Z,99379.09
2019-03-13T14:26:06.674Z,99366.91
2019-03-13T14:28:36.773Z,99373.00
2019-03-13T14:31:06.812Z,99370.13
2019-03-13T14:33:36.212Z,99381.96
2019-03-13T14:36:05.176Z,99390.92
2019-03-13T14:38:34.134Z,99380.14
2019-03-13T14:41:03.261Z,99388.77
2019-03-13T14:43:32.747Z,99379.90
2019-03-13T14:46:02.111Z,99383.09
2019-03-13T14:48:31.710Z,99388.23
2019-03-13T14:51:01.470Z,99385.13
2019-03-13T14:53:31.564Z,99375.65
2019-03-13T14:56:01.378Z,99380.43
2019-03-13T14:58:30.957Z,99377.80
2019-03-13T15:01:00.035Z,99374.22
2019-03-13T15:03:28.996Z,99384.02
2019-03-13T15:05:58.605Z,99376.33
2019-03-13T15:08:27.443Z,99389.34
2019-03-13T15:10:56.488Z,99379.20
2019-03-13T15:13:25.392Z,99393.01
2019-03-13T15:15:54.602Z,99382.66
2019-03-13T15:18:23.479Z,99390.67
2019-03-13T15:20:53.398Z,99390.36
2019-03-13T15:23:22.308Z,99396.92
2019-03-13T15:25:51.816Z,99402.80
2019-03-13T15:28:21.318Z,99405.95
2019-03-13T15:30:50.925Z,99401.83
2019-03-13T15:33:20.962Z,99407.21
2019-03-13T15:35:51.679Z,99415.81
2019-03-13T15:38:21.346Z,99398.75
2019-03-13T15:40:51.451Z,99409.94
2019-03-13T15:43:21.664Z,99398.27
2019-03-13T15:45:51.792Z,99390.71
2019-03-13T15:48:21.150Z,99391.44
2019-03-13T15:50:51.063Z,99386.02
2019-03-13T15:53:21.179Z,99372.71
2019-03-13T15:55:50.121Z,99376.23
2019-03-13T15:58:19.941Z,99366.96
2019-03-13T16:00:49.561Z,99366.41
2019-03-13T16:03:19.214Z,99378.77
2019-03-13T16:05:49.074Z,99366.41
2019-03-13T16:08:18.592Z,99369.98
2019-03-13T16:10:48.540Z,99371.06
2019-03-13T16:13:17.496Z,99360.52
2019-03-13T16:15:46.646Z,99355.74
2019-03-13T16:18:16.634Z,99358.31
2019-03-13T16:20:45.639Z,99363.20
2019-03-13T16:23:17.227Z,99362.72
2019-03-13T16:25:45.452Z,99359.79
2019-03-13T16:28:14.323Z,99358.95
2019-03-13T16:30:43.981Z,99368.36
2019-03-13T16:33:16.424Z,99356.16
2019-03-13T16:35:45.572Z,99353.23
2019-03-13T16:38:14.491Z,99360.37
2019-03-13T16:40:46.576Z,99366.30
2019-03-13T16:43:15.683Z,99368.72
2019-03-13T16:45:44.791Z,99367.97
2019-03-13T16:48:15.268Z,99371.88
2019-03-13T16:50:44.635Z,99378.91
2019-03-13T16:53:14.276Z,99362.52
2019-03-13T16:55:44.551Z,99354.66
2019-03-13T16:58:14.332Z,99371.77
2019-03-13T17:00:43.653Z,99365.25
2019-03-13T17:03:13.783Z,99360.23
2019-03-13T17:05:42.868Z,99362.80
2019-03-13T17:08:12.850Z,99366.71
2019-03-13T17:10:42.311Z,99359.16
2019-03-13T17:13:12.974Z,99366.71
2019-03-13T17:15:42.276Z,99347.95
2019-03-13T17:18:14.307Z,99345.59
2019-03-13T17:20:44.620Z,99352.37
2019-03-13T17:23:14.119Z,99362.20
2019-03-13T17:25:43.373Z,99361.22
2019-03-13T17:28:13.170Z,99367.92
2019-03-13T17:30:42.297Z,99369.63
2019-03-13T17:33:13.265Z,99372.11
2019-03-13T17:35:42.482Z,99362.61
2019-03-13T17:38:11.902Z,99368.36
2019-03-13T17:40:41.596Z,99361.81
2019-03-13T17:43:11.995Z,99365.59
2019-03-13T17:45:42.946Z,99364.91
2019-03-13T17:48:19.840Z,99364.43
2019-03-13T17:50:50.535Z,99357.15
2019-03-13T17:53:20.797Z,99350.96
2019-03-13T17:56:02.487Z,99342.01
2019-03-13T17:58:35.143Z,99352.64
2019-03-13T18:03:36.494Z,99340.07
2019-03-13T18:06:07.023Z,99331.99
2019-03-13T18:08:37.621Z,99330.60
2019-03-13T18:11:07.485Z,99327.70
2019-03-13T18:13:36.374Z,99335.38
2019-03-13T18:16:06.522Z,99331.80
2019-03-13T18:18:36.313Z,99334.78
2019-03-13T18:21:06.172Z,99325.25
2019-03-13T18:23:36.552Z,99327.83
2019-03-13T18:26:05.580Z,99334.20
2019-03-13T18:32:03.239Z,99330.27
2019-03-13T18:34:32.153Z,99333.70
2019-03-13T18:37:01.032Z,99326.70
2019-03-13T18:39:30.050Z,99330.67
2019-03-13T18:41:59.770Z,99319.95
2019-03-13T18:44:28.682Z,99334.27
2019-03-13T18:46:57.846Z,99339.73
2019-03-13T18:49:27.083Z,99349.52
2019-03-13T18:51:56.120Z,99351.56
2019-03-13T18:54:25.175Z,99348.80
2019-03-13T18:56:54.007Z,99334.52
2019-03-13T18:59:23.316Z,99327.97
2019-03-13T19:01:52.230Z,99331.17
2019-03-13T19:04:21.528Z,99338.97
2019-03-13T19:06:51.059Z,99335.47
2019-03-13T19:09:20.153Z,99331.78
2019-03-13T19:11:49.274Z,99326.83
2019-03-13T19:14:18.572Z,99340.30
2019-03-13T19:16:47.401Z,99328.75
2019-03-13T19:19:16.437Z,99323.03
2019-03-13T19:21:45.402Z,99326.38
2019-03-13T19:24:14.470Z,99325.24
2019-03-13T19:26:43.220Z,99343.02
2019-03-13T19:29:12.412Z,99345.59
2019-03-13T19:31:42.292Z,99344.61
2019-03-13T19:34:11.303Z,99347.59
2019-03-13T19:36:40.906Z,99354.15
2019-03-13T19:39:49.181Z,99356.33
2019-03-13T19:42:33.460Z,99361.55
2019-03-13T20:08:13.475Z,99375.00
2019-03-13T20:10:43.410Z,99376.78
2019-03-13T20:13:14.726Z,99372.59
2019-03-13T20:15:45.207Z,99387.09
2019-03-13T20:18:41.151Z,99383.66
2019-03-13T20:21:15.674Z,99387.22
2019-03-13T20:23:59.194Z,99400.23
2019-03-13T20:26:32.209Z,99397.72
2019-03-13T20:29:10.869Z,99401.83
2019-03-13T20:31:40.031Z,99415.30
2019-03-13T20:36:58.832Z,99432.00
2019-03-13T20:39:28.109Z,99425.47
2019-03-13T20:42:03.198Z,99432.31
2019-03-13T20:45:08.600Z,99426.59
2019-03-13T20:47:47.873Z,99453.13
2019-03-13T20:50:20.510Z,99448.11
2019-03-13T20:52:50.166Z,99428.73
2019-03-13T20:56:20.544Z,99465.67
2019-03-13T20:59:39.187Z,99478.94
2019-03-13T21:02:12.976Z,99468.37
2019-03-13T21:05:38.061Z,99471.50
2019-03-13T21:08:12.277Z,99482.00
2019-03-13T21:10:43.935Z,99486.88
2019-03-13T21:13:13.301Z,99497.91
2019-03-13T21:15:44.067Z,99498.28
2019-03-13T21:18:13.496Z,99498.64
2019-03-13T21:20:43.679Z,99505.59
2019-03-13T21:23:12.984Z,99500.91
2019-03-13T21:32:14.508Z,99529.40
2019-03-13T21:34:43.904Z,99530.59
2019-03-13T21:37:13.321Z,99530.31
2019-03-13T21:39:44.936Z,99555.72
2019-03-13T21:42:14.884Z,99551.34
2019-03-13T21:44:49.782Z,99557.14
2019-03-13T21:47:36.389Z,99564.55
2019-03-13T21:50:10.123Z,99570.36
2019-03-13T21:56:29.620Z,99584.21
2019-03-13T21:59:13.189Z,99583.73
2019-03-13T22:01:42.051Z,99596.17
2019-03-13T22:13:37.899Z,99629.33
2019-03-13T22:16:08.691Z,99637.02
2019-03-13T22:18:40.331Z,99649.44
2019-03-13T22:21:09.784Z,99651.37
2019-03-13T22:23:38.860Z,99667.84
2019-03-13T22:26:08.492Z,99669.83
2019-03-13T22:28:38.222Z,99667.38
2019-03-13T22:31:07.753Z,99679.13
2019-03-13T22:33:36.598Z,99686.06
2019-03-13T22:36:05.815Z,99702.75
2019-03-13T22:38:47.034Z,99702.02
2019-03-13T22:41:19.911Z,99707.33
2019-03-13T22:43:54.101Z,99717.45
2019-03-13T22:46:23.137Z,99724.22
2019-03-13T22:48:58.226Z,99726.12
2019-03-13T22:51:25.176Z,99736.30
2019-03-13T22:53:53.894Z,99748.94
2019-03-13T22:56:30.799Z,99749.36
2019-03-13T23:02:31.185Z,99756.86
2019-03-13T23:05:00.444Z,99759.91
2019-03-13T23:07:32.293Z,99762.27
2019-03-13T23:10:01.520Z,99776.49
2019-03-13T23:12:30.550Z,99783.25
2019-03-13T23:15:06.874Z,99778.74
2019-03-13T23:17:37.219Z,99761.90
2019-03-13T23:20:06.489Z,99784.66
2019-03-13T23:22:35.407Z,99792.06
2019-03-13T23:25:04.427Z,99787.08
2019-03-13T23:27:36.302Z,99784.66
2019-03-13T23:30:05.998Z,99794.95
2019-03-13T23:32:35.018Z,99796.73
2019-03-13T23:35:05.809Z,99801.04
2019-03-13T23:37:37.405Z,99814.16
2019-03-13T23:40:06.915Z,99815.30
2019-03-13T23:42:37.813Z,99814.35
2019-03-13T23:45:08.281Z,99821.86
2019-03-13T23:47:37.746Z,99828.05
2019-03-13T23:50:10.498Z,99833.35
2019-03-13T23:52:41.214Z,99828.78
2019-03-13T23:55:10.189Z,99836.28
2019-03-13T23:57:39.695Z,99844.70
